Mishima, Japan

2:35 AM JST on November 29, 2014 (GMT +0900)
ISHIZUOK4 | Change Station
CLOSE
Current Station
Personal Weather Station
Location: Numazu Kou, SHIZUOKA PREFECTURE
Elevation: 0 ft
Nearby Weather Stations

Elev 0 ft 35.01 °N, 138.84 °E | Updated 4 minutes ago

Light Rain Showers
Light Showers Rain
58.3 °F
Feels Like 58.3 °F
N
0.0
Wind Variable Wind from West
Gusts 1.6 mph

Today
High -- | Low -- °F
--% Chance of Precip.
Yesterday
High -- | Low -- °F
Precip. -- in
6:31 AM 4:32 PM
Waxing Crescent, 42% visible
Pressure 30.06 in
Visibility 6.2 miles
Clouds Few 600 ft
Scattered Clouds 1500 ft
Mostly Cloudy 2500 ft
Dew Point 58 °F
Humidity 99%
Rainfall 0.00 in
Snow Depth Not available.
UV 0 out of 12
Pollen Not available.
Air Quality Not available.
Flu Activity Not available.
SPECI RJNY 281710Z 29004KT 9999 -SHRA FEW006 SCT015 BKN025 13/12 Q1018 RMK 1ST006 3CU015 5CU025 A3009

More Conditions Fewer Conditions

Pressure 30.06 in
Visibility 6.2 miles
Clouds Few 600 ft
Scattered Clouds 1500 ft
Mostly Cloudy 2500 ft
Dew Point 58 °F
Humidity 99%
Rainfall 0.00 in
Snow Depth Not available.
UV 0 out of 12
Pollen Not available.
Air Quality Not available.
Flu Activity Not available.
SPECI RJNY 281710Z 29004KT 9999 -SHRA FEW006 SCT015 BKN025 13/12 Q1018 RMK 1ST006 3CU015 5CU025 A3009

More Conditions Fewer Conditions

10-Day Weather Forecast

Almanac

Astronomy

Nov. 29, 2014 Rise Set
Actual Time
Civil Twilight
Nautical Twilight
Astronomical Twilight
Moon
Length of Visible Light
Length of Day
Tomorrow will be .
, % of the Moon is Illuminated

Today's Extremes

Country Highs Country Lows

Community

WunderPhotos

Upload Photos

1,774,244 photos uploaded!

WunderBlogs® & News

Nearby

Air Quality

  Air Quality AQ Index Pollutant
Not available.

Snow Depth

Station Depth Elevation

Earthquake Activity

City Distance Mag. Time & Date
Minimum magnitude displayed is 2.5.

Coastal Water Temperatures

Place Temperature

Nearby Weather Stations